createdAt,value
2023-11-14T00:01:59.314Z,12.20
2023-11-14T00:04:27.201Z,12.10
2023-11-14T00:06:54.345Z,12.00
2023-11-14T00:09:21.383Z,12.00
2023-11-14T00:11:48.343Z,11.90
2023-11-14T00:14:17.811Z,11.90
2023-11-14T00:16:49.486Z,11.90
2023-11-14T00:19:21.100Z,11.80
2023-11-14T00:21:51.738Z,11.80
2023-11-14T00:24:20.908Z,11.80
2023-11-14T00:26:47.881Z,11.80
2023-11-14T00:29:17.094Z,11.90
2023-11-14T00:31:44.263Z,11.90
2023-11-14T00:34:13.626Z,11.90
2023-11-14T00:36:42.825Z,11.90
2023-11-14T00:39:10.386Z,11.80
2023-11-14T00:41:37.863Z,11.80
2023-11-14T00:44:07.563Z,11.80
2023-11-14T00:46:37.210Z,11.80
2023-11-14T00:49:04.678Z,11.80
2023-11-14T00:51:31.573Z,11.80
2023-11-14T00:53:58.543Z,11.80
2023-11-14T00:56:30.954Z,11.80
2023-11-14T00:58:58.031Z,11.90
2023-11-14T01:01:25.082Z,11.90
2023-11-14T01:03:52.028Z,12.00
2023-11-14T01:06:20.796Z,12.00
2023-11-14T01:08:48.488Z,11.90
2023-11-14T01:11:16.491Z,11.90
2023-11-14T01:13:43.508Z,11.90
2023-11-14T01:16:15.651Z,11.90
2023-11-14T01:18:42.707Z,11.90
2023-11-14T01:21:18.288Z,11.90
2023-11-14T01:23:48.194Z,11.80
2023-11-14T01:26:17.798Z,11.80
2023-11-14T01:28:44.922Z,11.80
2023-11-14T01:31:26.339Z,11.90
2023-11-14T01:33:53.354Z,11.80
2023-11-14T01:36:25.304Z,11.80
2023-11-14T01:38:52.499Z,11.80
2023-11-14T01:41:19.549Z,11.80
2023-11-14T01:43:47.672Z,11.80
2023-11-14T01:46:17.179Z,11.80
2023-11-14T01:48:50.047Z,11.80
2023-11-14T01:51:24.220Z,11.80
2023-11-14T01:53:52.782Z,11.80
2023-11-14T01:56:24.120Z,11.80
2023-11-14T01:58:52.603Z,11.80
2023-11-14T02:01:24.252Z,11.80
2023-11-14T02:03:52.397Z,11.80
2023-11-14T02:06:19.372Z,11.80
2023-11-14T02:08:47.779Z,11.80
2023-11-14T02:11:17.087Z,11.80
2023-11-14T02:13:46.782Z,11.80
2023-11-14T02:16:16.461Z,11.80
2023-11-14T02:18:43.438Z,11.80
2023-11-14T02:21:14.094Z,11.80
2023-11-14T02:23:46.225Z,11.80
2023-11-14T02:26:13.274Z,11.80
2023-11-14T02:28:40.232Z,11.90
2023-11-14T02:31:07.593Z,11.80
2023-11-14T02:33:39.192Z,11.70
2023-11-14T02:36:11.172Z,11.80
2023-11-14T02:38:38.096Z,11.80
2023-11-14T02:41:05.297Z,11.70
2023-11-14T02:43:32.304Z,11.80
2023-11-14T02:46:01.533Z,11.80
2023-11-14T02:48:28.881Z,11.70
2023-11-14T02:50:57.614Z,11.70
2023-11-14T02:53:24.821Z,11.60
2023-11-14T02:55:55.704Z,11.60
2023-11-14T02:58:25.266Z,11.50
2023-11-14T03:00:52.729Z,11.40
2023-11-14T03:03:22.497Z,11.40
2023-11-14T03:05:49.469Z,11.30
2023-11-14T03:08:16.717Z,11.20
2023-11-14T03:10:46.563Z,11.20
2023-11-14T03:13:14.669Z,11.20
2023-11-14T03:15:43.777Z,11.20
2023-11-14T03:18:10.940Z,11.20
2023-11-14T03:20:37.969Z,11.30
2023-11-14T03:23:05.471Z,11.30
2023-11-14T03:25:34.822Z,11.40
2023-11-14T03:28:02.815Z,11.40
2023-11-14T03:30:30.029Z,11.40
2023-11-14T03:33:00.618Z,11.40
2023-11-14T03:35:28.395Z,11.40
2023-11-14T03:37:57.578Z,11.40
2023-11-14T03:40:24.621Z,11.40
2023-11-14T03:42:51.985Z,11.40
2023-11-14T03:45:21.027Z,11.40
2023-11-14T03:47:50.605Z,11.40
2023-11-14T03:50:17.601Z,11.40
2023-11-14T03:52:45.311Z,11.40
2023-11-14T03:55:12.214Z,11.40
2023-11-14T03:57:39.125Z,11.30
2023-11-14T04:00:06.608Z,11.30
2023-11-14T04:02:39.878Z,11.20
2023-11-14T04:05:07.234Z,11.20
2023-11-14T04:07:34.409Z,11.10
2023-11-14T04:10:04.270Z,11.00
2023-11-14T04:12:31.155Z,10.90
2023-11-14T04:14:58.206Z,10.80
2023-11-14T04:17:27.289Z,10.80
2023-11-14T04:19:59.001Z,10.70
2023-11-14T04:22:28.286Z,10.70
2023-11-14T04:24:59.340Z,10.70
2023-11-14T04:27:26.463Z,10.70
2023-11-14T04:29:53.559Z,10.60
2023-11-14T04:32:20.577Z,10.60
2023-11-14T04:34:47.615Z,10.50
2023-11-14T04:37:14.605Z,10.50
2023-11-14T04:39:41.549Z,10.40
2023-11-14T04:42:12.210Z,10.50
2023-11-14T04:44:39.600Z,10.40
2023-11-14T04:47:09.309Z,10.40
2023-11-14T04:49:37.290Z,10.30
2023-11-14T04:52:04.596Z,10.30
2023-11-14T04:54:31.442Z,10.30
2023-11-14T04:56:59.065Z,10.20
2023-11-14T04:59:28.192Z,10.20
2023-11-14T05:01:55.199Z,10.10
2023-11-14T05:04:24.698Z,10.10
2023-11-14T05:06:51.648Z,10.10
2023-11-14T05:09:18.612Z,10.10
2023-11-14T05:11:50.322Z,10.10
2023-11-14T05:14:19.526Z,10.10
2023-11-14T05:16:48.744Z,10.20
2023-11-14T05:19:16.050Z,10.20
2023-11-14T05:21:43.144Z,10.20
2023-11-14T05:24:10.309Z,10.10
2023-11-14T05:26:39.795Z,10.10
2023-11-14T05:29:08.162Z,10.10
2023-11-14T05:31:36.289Z,10.10
2023-11-14T05:34:03.501Z,10.20
2023-11-14T05:36:30.366Z,10.10
2023-11-14T05:39:00.051Z,10.10
2023-11-14T05:41:27.622Z,10.10
2023-11-14T05:43:54.663Z,10.00
2023-11-14T05:46:21.528Z,10.00
2023-11-14T05:48:48.461Z,9.90
2023-11-14T05:51:20.077Z,9.90
2023-11-14T05:53:47.049Z,9.90
2023-11-14T05:56:14.196Z,9.80
2023-11-14T05:58:43.707Z,9.80
2023-11-14T06:01:11.749Z,9.80
2023-11-14T06:03:39.030Z,9.80
2023-11-14T06:06:06.145Z,9.70
2023-11-14T06:08:33.044Z,9.70
2023-11-14T06:11:00.076Z,9.60
2023-11-14T06:13:27.461Z,9.60
2023-11-14T06:15:54.951Z,9.50
2023-11-14T06:18:21.918Z,9.50
2023-11-14T06:20:48.929Z,9.50
2023-11-14T06:23:16.849Z,9.40
2023-11-14T06:25:43.881Z,9.40
2023-11-14T06:28:11.521Z,9.30
2023-11-14T06:30:39.979Z,9.30
2023-11-14T06:33:07.022Z,9.30
2023-11-14T06:35:37.575Z,9.30
2023-11-14T06:38:07.646Z,9.20
2023-11-14T06:40:34.673Z,9.20
2023-11-14T06:43:05.295Z,9.20
2023-11-14T06:45:32.232Z,9.20
2023-11-14T06:47:59.280Z,9.30
2023-11-14T06:50:33.963Z,9.30
2023-11-14T06:53:09.586Z,9.30
2023-11-14T06:55:36.675Z,9.40
2023-11-14T06:58:03.536Z,9.50
2023-11-14T07:00:32.219Z,9.60
2023-11-14T07:03:01.690Z,9.70
2023-11-14T07:05:29.098Z,9.80
2023-11-14T07:07:56.411Z,9.90
2023-11-14T07:10:31.408Z,10.00
2023-11-14T07:13:00.939Z,10.10
2023-11-14T07:15:30.400Z,10.20
2023-11-14T07:17:57.493Z,10.30
2023-11-14T07:20:28.197Z,10.30
2023-11-14T07:22:57.714Z,10.30
2023-11-14T07:25:24.809Z,10.30
2023-11-14T07:27:53.115Z,10.30
2023-11-14T07:30:20.115Z,10.20
2023-11-14T07:32:47.153Z,10.20
2023-11-14T07:35:14.475Z,10.30
2023-11-14T07:37:41.576Z,10.40
2023-11-14T07:40:10.069Z,10.60
2023-11-14T07:42:39.943Z,10.70
2023-11-14T07:45:12.696Z,10.90
2023-11-14T07:47:41.447Z,11.00
2023-11-14T07:50:10.767Z,11.00
2023-11-14T07:52:38.150Z,11.10
2023-11-14T07:55:05.454Z,11.10
2023-11-14T07:57:35.175Z,11.20
2023-11-14T08:00:05.602Z,11.20
2023-11-14T08:02:40.153Z,11.20
2023-11-14T08:05:09.485Z,11.20
2023-11-14T08:07:39.349Z,11.20
2023-11-14T08:10:07.204Z,11.20
2023-11-14T08:12:37.405Z,11.20
2023-11-14T08:15:07.422Z,11.20
2023-11-14T08:17:34.422Z,11.30
2023-11-14T08:20:04.545Z,11.30
2023-11-14T08:22:31.658Z,11.40
2023-11-14T08:25:01.189Z,11.50
2023-11-14T08:27:32.050Z,11.60
2023-11-14T08:30:01.359Z,11.70
2023-11-14T08:32:29.927Z,11.80
2023-11-14T08:34:59.405Z,11.90
2023-11-14T08:37:28.640Z,12.00
2023-11-14T08:39:56.524Z,12.00
2023-11-14T08:42:23.466Z,12.00
2023-11-14T08:44:50.665Z,11.90
2023-11-14T08:47:18.036Z,11.90
2023-11-14T08:49:47.375Z,11.80
2023-11-14T08:52:16.840Z,11.70
2023-11-14T08:54:44.169Z,11.70
2023-11-14T08:57:11.082Z,11.70
2023-11-14T08:59:38.156Z,11.50
2023-11-14T09:02:05.319Z,11.50
2023-11-14T09:04:32.332Z,11.60
2023-11-14T09:06:59.379Z,11.80
2023-11-14T09:09:28.854Z,11.90
2023-11-14T09:11:55.717Z,12.00
2023-11-14T09:14:22.853Z,12.00
2023-11-14T09:16:50.086Z,12.10
2023-11-14T09:19:16.957Z,12.10
2023-11-14T09:21:48.556Z,12.10
2023-11-14T09:24:15.410Z,12.10
2023-11-14T09:26:42.419Z,12.10
2023-11-14T09:29:09.326Z,12.20
2023-11-14T09:31:36.291Z,12.10
2023-11-14T09:34:07.734Z,12.10
2023-11-14T09:36:34.738Z,12.10
2023-11-14T09:39:05.215Z,12.10
2023-11-14T09:41:34.319Z,12.20
2023-11-14T09:44:03.303Z,12.40
2023-11-14T09:46:33.798Z,12.50
2023-11-14T09:49:05.561Z,12.60
2023-11-14T09:51:34.178Z,12.60
2023-11-14T09:54:02.030Z,12.50
2023-11-14T09:56:30.258Z,12.50
2023-11-14T09:59:00.273Z,12.70
2023-11-14T10:01:27.501Z,12.70
2023-11-14T10:03:54.747Z,12.70
2023-11-14T10:06:21.773Z,12.80
2023-11-14T10:08:58.334Z,12.90
2023-11-14T10:12:11.210Z,12.90
2023-11-14T10:14:48.555Z,12.90
2023-11-14T10:17:20.298Z,12.90
2023-11-14T10:20:10.320Z,12.90
2023-11-14T10:22:53.269Z,12.80
2023-11-14T10:25:31.025Z,12.80
2023-11-14T10:28:05.684Z,12.80
2023-11-14T10:30:50.026Z,13.10
2023-11-14T10:33:18.103Z,13.20
2023-11-14T10:35:47.637Z,13.10
2023-11-14T10:38:23.550Z,13.10
2023-11-14T10:40:55.548Z,13.00
2023-11-14T10:43:37.989Z,13.10
2023-11-14T10:46:11.925Z,13.20
2023-11-14T10:48:38.860Z,13.30
2023-11-14T10:51:09.809Z,13.20
2023-11-14T10:53:37.217Z,13.20
2023-11-14T10:56:06.112Z,13.10
2023-11-14T10:58:35.484Z,13.00
2023-11-14T11:01:04.290Z,12.90
2023-11-14T11:03:31.997Z,12.90
2023-11-14T11:06:02.482Z,13.00
2023-11-14T11:08:29.507Z,13.00
2023-11-14T11:10:59.575Z,13.10
2023-11-14T11:13:28.233Z,13.10
2023-11-14T11:15:58.624Z,13.00
2023-11-14T11:18:35.993Z,13.00
2023-11-14T11:21:13.723Z,13.10
2023-11-14T11:24:13.821Z,13.10
2023-11-14T11:27:20.384Z,13.10
2023-11-14T11:29:59.499Z,13.30
2023-11-14T11:32:29.139Z,13.30
2023-11-14T11:35:22.245Z,13.40
2023-11-14T11:37:50.040Z,13.40
2023-11-14T11:40:22.380Z,13.50
2023-11-14T11:42:50.151Z,13.60
2023-11-14T11:45:39.094Z,13.60
2023-11-14T11:48:26.036Z,13.50
2023-11-14T11:50:55.956Z,13.60
2023-11-14T11:53:50.697Z,13.50
2023-11-14T11:56:38.171Z,13.40
2023-11-14T11:59:05.250Z,13.30
2023-11-14T12:01:32.758Z,13.20
2023-11-14T12:04:00.871Z,13.10
2023-11-14T12:06:28.342Z,13.10
2023-11-14T12:08:56.482Z,13.00
2023-11-14T12:11:23.583Z,13.00
2023-11-14T12:13:54.692Z,13.00
2023-11-14T12:16:24.685Z,12.90
2023-11-14T12:18:51.813Z,12.90
2023-11-14T12:21:19.946Z,13.00
2023-11-14T12:23:49.521Z,13.10
2023-11-14T12:26:18.793Z,13.20
2023-11-14T12:28:46.253Z,13.30
2023-11-14T12:31:14.355Z,13.40
2023-11-14T12:33:51.930Z,13.40
2023-11-14T12:36:23.470Z,13.40
2023-11-14T12:38:51.193Z,13.30
2023-11-14T12:41:29.751Z,13.30
2023-11-14T12:44:08.025Z,13.20
2023-11-14T12:46:37.880Z,13.10
2023-11-14T12:49:18.397Z,13.10
2023-11-14T12:51:51.410Z,13.20
2023-11-14T12:54:23.090Z,13.20
2023-11-14T12:56:53.896Z,13.20
2023-11-14T12:59:23.804Z,13.00
2023-11-14T13:01:51.638Z,13.00
2023-11-14T13:04:19.670Z,12.90
2023-11-14T13:06:48.458Z,12.90
2023-11-14T13:09:17.981Z,12.90
2023-11-14T13:11:45.972Z,12.90
2023-11-14T13:14:14.257Z,12.90
2023-11-14T13:16:44.964Z,12.90
2023-11-14T13:19:16.076Z,12.90
2023-11-14T13:21:43.056Z,12.80
2023-11-14T13:24:12.647Z,12.90
2023-11-14T13:26:39.792Z,12.80
2023-11-14T13:29:09.154Z,12.80
2023-11-14T13:31:38.441Z,12.90
2023-11-14T13:34:05.674Z,12.80
2023-11-14T13:36:33.602Z,12.80
2023-11-14T13:39:03.901Z,12.90
2023-11-14T13:41:46.491Z,12.80
2023-11-14T13:44:14.836Z,12.80
2023-11-14T13:46:41.758Z,12.80
2023-11-14T13:49:10.422Z,12.70
2023-11-14T13:51:37.411Z,12.80
2023-11-14T13:54:07.918Z,12.70
2023-11-14T13:56:35.069Z,12.70
2023-11-14T13:59:04.775Z,12.60
2023-11-14T14:01:34.372Z,12.60
2023-11-14T14:04:02.084Z,12.50
2023-11-14T14:06:29.196Z,12.50
2023-11-14T14:08:59.713Z,12.50
2023-11-14T14:11:30.060Z,12.40
2023-11-14T14:13:57.707Z,12.40
2023-11-14T14:16:26.400Z,12.30
2023-11-14T14:18:55.646Z,12.20
2023-11-14T14:21:22.667Z,12.10
2023-11-14T14:23:49.527Z,12.00
2023-11-14T14:26:18.995Z,12.00
2023-11-14T14:28:47.679Z,11.90
2023-11-14T14:31:20.256Z,11.90
2023-11-14T14:33:47.600Z,11.80
2023-11-14T14:36:14.964Z,11.80
2023-11-14T14:38:41.882Z,11.70
2023-11-14T14:41:09.564Z,11.70
2023-11-14T14:43:40.333Z,11.60
2023-11-14T14:46:11.687Z,11.50
2023-11-14T14:48:38.690Z,11.50
2023-11-14T14:51:07.987Z,11.40
2023-11-14T14:53:37.210Z,11.40
2023-11-14T14:56:04.778Z,11.30
2023-11-14T14:58:31.832Z,11.30
2023-11-14T15:01:00.873Z,11.20
2023-11-14T15:03:27.923Z,11.20
2023-11-14T15:06:01.338Z,11.10
2023-11-14T15:08:28.306Z,11.00
2023-11-14T15:10:55.296Z,11.00
2023-11-14T15:13:22.218Z,11.00
2023-11-14T15:15:52.492Z,11.00
2023-11-14T15:18:20.035Z,11.00
2023-11-14T15:20:47.867Z,10.90
2023-11-14T15:23:15.123Z,10.90
2023-11-14T15:25:45.296Z,10.90
2023-11-14T15:28:12.445Z,10.90
2023-11-14T15:30:39.418Z,10.80
2023-11-14T15:33:06.474Z,10.80
2023-11-14T15:35:33.568Z,10.80
2023-11-14T15:38:01.635Z,10.80
2023-11-14T15:40:28.563Z,10.80
2023-11-14T15:43:00.480Z,10.80
2023-11-14T15:45:32.659Z,10.70
2023-11-14T15:47:59.644Z,10.70
2023-11-14T15:50:26.744Z,10.70
2023-11-14T15:52:53.844Z,10.60
2023-11-14T15:55:20.911Z,10.60
2023-11-14T15:57:51.505Z,10.60
2023-11-14T16:00:18.785Z,10.60
2023-11-14T16:02:45.974Z,10.60
2023-11-14T16:05:15.402Z,10.60
2023-11-14T16:07:42.805Z,10.50
2023-11-14T16:10:12.175Z,10.50
2023-11-14T16:12:39.249Z,10.50
2023-11-14T16:15:07.306Z,10.50
2023-11-14T16:17:36.763Z,10.50
2023-11-14T16:20:04.817Z,10.50
2023-11-14T16:22:33.623Z,10.50
2023-11-14T16:25:00.629Z,10.50
2023-11-14T16:27:28.048Z,10.50
2023-11-14T16:29:55.397Z,10.50
2023-11-14T16:32:23.035Z,10.60
2023-11-14T16:34:50.763Z,10.60
2023-11-14T16:37:17.964Z,10.60
2023-11-14T16:39:45.424Z,10.60
2023-11-14T16:42:12.841Z,10.60
2023-11-14T16:44:40.194Z,10.60
2023-11-14T16:47:08.113Z,10.60
2023-11-14T16:49:36.202Z,10.60
2023-11-14T16:52:06.812Z,10.60
2023-11-14T16:54:35.923Z,10.60
2023-11-14T16:57:04.072Z,10.60
2023-11-14T16:59:31.117Z,10.60
2023-11-14T17:01:58.554Z,10.60
2023-11-14T17:04:27.398Z,10.60
2023-11-14T17:06:54.332Z,10.60
2023-11-14T17:09:23.713Z,10.60
2023-11-14T17:11:52.969Z,10.60
2023-11-14T17:14:22.506Z,10.60
2023-11-14T17:16:50.319Z,10.60
2023-11-14T17:19:19.537Z,10.50
2023-11-14T17:21:48.596Z,10.50
2023-11-14T17:24:15.606Z,10.50
2023-11-14T17:26:43.966Z,10.50
2023-11-14T17:29:12.058Z,10.40
2023-11-14T17:31:43.713Z,10.40
2023-11-14T17:34:13.067Z,10.40
2023-11-14T17:36:40.101Z,10.30
2023-11-14T17:39:10.488Z,10.20
2023-11-14T17:41:38.051Z,10.30
2023-11-14T17:44:05.060Z,10.20
2023-11-14T17:46:31.937Z,10.10
2023-11-14T17:48:59.033Z,10.10
2023-11-14T17:51:34.923Z,10.00
2023-11-14T17:54:05.925Z,10.00
2023-11-14T17:56:35.377Z,10.00
2023-11-14T17:59:05.741Z,10.00
2023-11-14T18:01:33.199Z,10.00
2023-11-14T18:04:03.110Z,10.00
2023-11-14T18:06:30.229Z,10.00
2023-11-14T18:08:57.412Z,10.00
2023-11-14T18:11:26.950Z,10.00
2023-11-14T18:13:55.232Z,10.00
2023-11-14T18:16:23.041Z,10.10
2023-11-14T18:18:50.077Z,10.10
2023-11-14T18:21:17.469Z,10.10
2023-11-14T18:23:44.333Z,10.10
2023-11-14T18:26:13.402Z,10.10
2023-11-14T18:28:42.580Z,10.10
2023-11-14T18:31:12.112Z,10.10
2023-11-14T18:33:41.448Z,10.10
2023-11-14T18:36:11.046Z,10.10
2023-11-14T18:38:40.793Z,10.20
2023-11-14T18:41:10.264Z,10.20
2023-11-14T18:43:39.818Z,10.20
2023-11-14T18:46:09.662Z,10.40
2023-11-14T18:48:36.699Z,10.50
2023-11-14T18:51:46.669Z,10.70
2023-11-14T18:54:17.506Z,10.70
2023-11-14T18:56:44.852Z,10.80
2023-11-14T18:59:18.064Z,10.70
2023-11-14T19:01:45.300Z,10.70
2023-11-14T19:04:20.690Z,10.80
2023-11-14T19:06:50.759Z,10.80
2023-11-14T19:09:22.006Z,10.80
2023-11-14T19:11:54.433Z,10.80
2023-11-14T19:14:21.453Z,10.80
2023-11-14T19:16:49.226Z,10.80
2023-11-14T19:19:18.787Z,10.80
2023-11-14T19:21:46.498Z,10.80
2023-11-14T19:24:19.748Z,10.80
2023-11-14T19:26:47.177Z,10.90
2023-11-14T19:29:14.836Z,10.90
2023-11-14T19:31:43.677Z,10.90
2023-11-14T19:34:17.232Z,10.90
2023-11-14T19:36:49.877Z,10.90
2023-11-14T19:39:19.982Z,10.90
2023-11-14T19:41:49.498Z,10.90
2023-11-14T19:44:16.694Z,10.90
2023-11-14T19:46:43.940Z,10.90
2023-11-14T19:49:13.563Z,10.90
2023-11-14T19:51:41.304Z,10.90
2023-11-14T19:54:08.714Z,10.90
2023-11-14T19:56:35.605Z,10.90
2023-11-14T19:59:02.588Z,10.90
2023-11-14T20:01:29.517Z,10.90
2023-11-14T20:03:59.550Z,10.90
2023-11-14T20:06:31.426Z,10.90
2023-11-14T20:08:59.792Z,10.90
2023-11-14T20:11:29.416Z,10.90
2023-11-14T20:13:56.486Z,11.00
2023-11-14T20:16:23.613Z,11.00
2023-11-14T20:18:53.445Z,11.00
2023-11-14T20:21:27.761Z,11.00
2023-11-14T20:23:57.330Z,11.00
2023-11-14T20:26:24.353Z,11.00
2023-11-14T20:28:53.576Z,11.00
2023-11-14T20:31:20.842Z,11.10
2023-11-14T20:33:48.533Z,11.10
2023-11-14T20:36:16.045Z,11.10
2023-11-14T20:38:43.185Z,11.10
2023-11-14T20:41:10.250Z,11.10
2023-11-14T20:43:37.693Z,11.20
2023-11-14T20:46:04.983Z,11.10
2023-11-14T20:48:31.926Z,11.20
2023-11-14T20:51:13.695Z,11.20
2023-11-14T20:53:49.849Z,11.20
2023-11-14T20:56:19.991Z,11.20
2023-11-14T20:58:47.100Z,11.20
2023-11-14T21:01:14.803Z,11.20
2023-11-14T21:03:42.040Z,11.20
2023-11-14T21:06:10.607Z,11.20
2023-11-14T21:08:38.031Z,11.20
2023-11-14T21:11:05.964Z,11.20
2023-11-14T21:13:33.079Z,11.10
2023-11-14T21:16:00.479Z,11.20
2023-11-14T21:18:27.451Z,11.20
2023-11-14T21:20:54.414Z,11.20
2023-11-14T21:23:21.460Z,11.20
2023-11-14T21:25:48.757Z,11.20
2023-11-14T21:28:15.664Z,11.30
2023-11-14T21:30:44.987Z,11.30
2023-11-14T21:33:12.174Z,11.30
2023-11-14T21:35:41.746Z,11.30
2023-11-14T21:38:11.074Z,11.30
2023-11-14T21:40:38.519Z,11.30
2023-11-14T21:43:05.511Z,11.30
2023-11-14T21:45:34.831Z,11.20
2023-11-14T21:48:04.763Z,11.30
2023-11-14T21:50:34.460Z,11.30
2023-11-14T21:53:01.570Z,11.30
2023-11-14T21:55:28.525Z,11.30
2023-11-14T21:57:56.600Z,11.30
2023-11-14T22:00:23.497Z,11.30
2023-11-14T22:02:50.578Z,11.30
2023-11-14T22:05:18.104Z,11.30
2023-11-14T22:07:47.643Z,11.30
2023-11-14T22:10:14.736Z,11.30
2023-11-14T22:12:42.461Z,11.30
2023-11-14T22:15:11.557Z,11.40
2023-11-14T22:17:40.812Z,11.30
2023-11-14T22:20:08.333Z,11.30
2023-11-14T22:22:35.602Z,11.30
2023-11-14T22:25:02.679Z,11.30
2023-11-14T22:27:29.690Z,11.20
2023-11-14T22:29:58.379Z,11.30
2023-11-14T22:32:26.973Z,11.30
2023-11-14T22:35:01.183Z,11.30
2023-11-14T22:37:29.407Z,11.30
2023-11-14T22:39:56.680Z,11.30
2023-11-14T22:42:23.546Z,11.30
2023-11-14T22:44:50.554Z,11.20
2023-11-14T22:47:18.324Z,11.20
2023-11-14T22:49:45.359Z,11.20
2023-11-14T22:52:14.498Z,11.20
2023-11-14T22:54:47.184Z,11.20
2023-11-14T22:57:14.301Z,11.10
2023-11-14T22:59:41.273Z,11.10
2023-11-14T23:02:10.576Z,11.10
2023-11-14T23:04:39.920Z,11.10
2023-11-14T23:07:06.969Z,11.00
2023-11-14T23:09:36.471Z,11.00
2023-11-14T23:12:07.208Z,11.00
2023-11-14T23:14:34.655Z,11.00
2023-11-14T23:17:04.192Z,11.00
2023-11-14T23:19:32.569Z,11.00
2023-11-14T23:22:00.225Z,10.90
2023-11-14T23:24:27.439Z,10.90
2023-11-14T23:26:54.571Z,10.90
2023-11-14T23:29:23.978Z,10.90
2023-11-14T23:31:51.008Z,10.90
2023-11-14T23:34:18.016Z,10.90
2023-11-14T23:36:44.962Z,10.80
2023-11-14T23:39:18.921Z,10.80
2023-11-14T23:41:46.535Z,10.80
2023-11-14T23:44:19.840Z,10.80
2023-11-14T23:46:47.186Z,10.90
2023-11-14T23:49:17.930Z,10.80
2023-11-14T23:51:45.109Z,10.80
2023-11-14T23:54:12.139Z,10.80
2023-11-14T23:56:42.055Z,10.80
2023-11-14T23:59:09.134Z,10.80
